createdAt,value
2022-10-30T12:16:14.018Z,18.55
2022-10-30T12:16:50.832Z,14.50
2022-10-30T12:17:22.756Z,12.65
2022-10-30T12:18:02.279Z,17.13
2022-10-30T12:18:33.945Z,14.07
2022-10-30T12:19:09.455Z,17.20
2022-10-30T12:19:49.218Z,16.80
2022-10-30T12:20:20.890Z,13.80
2022-10-30T12:20:55.095Z,14.50
2022-10-30T12:21:29.032Z,14.90
2022-10-30T12:22:01.420Z,17.10
2022-10-30T12:22:34.888Z,16.40
2022-10-30T12:23:17.649Z,24.60
2022-10-30T12:24:01.239Z,17.27
2022-10-30T12:24:38.747Z,16.25
2022-10-30T12:25:31.142Z,17.05
2022-10-30T12:26:09.744Z,19.15
2022-10-30T12:26:41.293Z,19.27
2022-10-30T12:27:19.809Z,16.85
2022-10-30T12:28:17.360Z,17.83
2022-10-30T12:28:59.654Z,17.75
2022-10-30T12:30:07.307Z,21.33
2022-10-30T12:31:14.925Z,19.52
2022-10-30T12:31:56.784Z,18.83
2022-10-30T12:32:49.228Z,19.00
2022-10-30T12:33:26.577Z,13.43
2022-10-30T12:33:57.825Z,17.00
2022-10-30T12:34:49.423Z,16.52
2022-10-30T12:35:40.059Z,15.95
2022-10-30T12:36:17.738Z,20.05
2022-10-30T12:36:55.663Z,19.90
2022-10-30T12:37:37.414Z,23.90
2022-10-30T12:38:51.946Z,16.83
2022-10-30T12:39:38.700Z,20.13
2022-10-30T12:40:10.172Z,17.85
2022-10-30T12:40:56.036Z,22.02
2022-10-30T12:41:32.430Z,16.92
2022-10-30T12:42:13.897Z,18.77
2022-10-30T12:43:02.837Z,23.52
2022-10-30T12:43:36.324Z,19.42
2022-10-30T12:44:07.578Z,17.05
2022-10-30T12:44:54.138Z,22.27
2022-10-30T12:45:34.493Z,14.77
2022-10-30T12:46:48.765Z,16.05
2022-10-30T12:47:32.818Z,16.17
2022-10-30T12:48:25.451Z,16.17
2022-10-30T12:49:06.906Z,16.38
2022-10-30T12:49:47.969Z,14.98
2022-10-30T12:50:27.624Z,14.70
2022-10-30T12:51:17.110Z,18.48
2022-10-30T12:52:00.336Z,16.30
2022-10-30T12:52:41.707Z,16.95
2022-10-30T12:53:26.927Z,18.92
2022-10-30T12:54:22.387Z,14.95
2022-10-30T12:55:03.424Z,13.10
2022-10-30T12:55:49.259Z,18.10
2022-10-30T12:56:30.021Z,15.95
2022-10-30T12:57:12.710Z,14.52
2022-10-30T12:57:53.097Z,17.25
2022-10-30T12:59:26.474Z,9.70
2022-10-30T13:00:13.564Z,15.98
2022-10-30T13:01:03.178Z,17.52
2022-10-30T13:01:55.737Z,18.65
2022-10-30T13:02:39.369Z,12.18
2022-10-30T13:03:31.644Z,14.27
2022-10-30T13:04:23.195Z,12.98
2022-10-30T13:04:59.457Z,16.75
2022-10-30T13:05:37.078Z,18.75
2022-10-30T13:06:16.047Z,16.35
2022-10-30T13:07:10.864Z,13.35
2022-10-30T13:07:47.335Z,15.23
2022-10-30T13:08:30.496Z,17.73
2022-10-30T13:09:16.921Z,18.58
2022-10-30T13:10:03.279Z,14.25
2022-10-30T13:10:41.283Z,19.67
2022-10-30T13:11:38.313Z,18.00
2022-10-30T13:12:14.085Z,18.00
2022-10-30T13:12:52.233Z,11.73
2022-10-30T13:13:28.504Z,14.63
2022-10-30T13:14:01.246Z,16.35
2022-10-30T13:14:41.738Z,14.13
2022-10-30T13:15:29.482Z,16.48
2022-10-30T13:16:03.913Z,16.40
2022-10-30T13:16:35.968Z,14.77
2022-10-30T13:17:12.590Z,16.67
2022-10-30T13:17:43.893Z,17.75
2022-10-30T13:18:21.422Z,15.05
2022-10-30T13:18:56.469Z,12.70
2022-10-30T13:19:28.093Z,12.30
2022-10-30T13:19:59.966Z,12.35
2022-10-30T13:20:31.729Z,13.10
2022-10-30T13:21:30.500Z,17.98
2022-10-30T13:22:23.777Z,15.43
2022-10-30T13:23:05.800Z,17.45
2022-10-30T13:23:51.525Z,18.10
2022-10-30T13:24:41.157Z,16.50
2022-10-30T13:25:51.954Z,14.32
2022-10-30T13:26:33.474Z,13.40
2022-10-30T13:27:22.499Z,17.38
2022-10-30T13:27:53.774Z,13.98
2022-10-30T13:28:45.791Z,11.00
2022-10-30T13:29:37.494Z,13.48
2022-10-30T13:30:18.346Z,12.80
2022-10-30T13:31:18.759Z,12.63
2022-10-30T13:32:23.064Z,14.55
2022-10-30T13:33:13.845Z,14.82
2022-10-30T13:34:03.100Z,18.48
2022-10-30T13:34:37.486Z,13.65
2022-10-30T13:35:27.217Z,20.55
2022-10-30T13:36:12.453Z,17.60
2022-10-30T13:36:48.861Z,12.00
2022-10-30T13:37:29.346Z,13.52
2022-10-30T13:38:14.057Z,17.02
2022-10-30T13:39:18.261Z,15.07
2022-10-30T13:40:20.738Z,13.43
2022-10-30T13:41:26.530Z,14.70
2022-10-30T13:42:07.955Z,12.57
2022-10-30T13:42:55.398Z,15.48
2022-10-30T13:43:43.146Z,16.08
2022-10-30T13:44:40.243Z,15.25
2022-10-30T13:45:20.622Z,14.77
2022-10-30T13:47:17.199Z,15.50
2022-10-30T13:47:59.604Z,11.75
2022-10-30T13:48:59.908Z,15.45
2022-10-30T13:49:54.800Z,10.63
2022-10-30T13:50:41.777Z,14.93
2022-10-30T13:51:42.897Z,17.00
2022-10-30T13:52:16.477Z,14.48
2022-10-30T13:52:54.841Z,13.52
2022-10-30T13:53:30.125Z,9.48
2022-10-30T13:54:04.059Z,16.42
2022-10-30T13:54:44.847Z,13.38
2022-10-30T13:55:26.299Z,12.60
2022-10-30T13:55:58.181Z,13.43
2022-10-30T13:56:30.254Z,13.02
2022-10-30T13:57:13.675Z,13.00
2022-10-30T13:57:59.173Z,10.88
2022-10-30T13:58:43.134Z,13.90
2022-10-30T13:59:39.157Z,14.27
2022-10-30T14:00:19.376Z,12.95
2022-10-30T14:01:08.134Z,13.82
2022-10-30T14:02:05.313Z,19.35
2022-10-30T14:02:53.535Z,18.45
2022-10-30T14:03:39.946Z,19.50
2022-10-30T14:04:26.400Z,15.23
2022-10-30T14:05:13.844Z,12.50
2022-10-30T14:05:56.404Z,15.93
2022-10-30T14:06:46.312Z,15.95
2022-10-30T14:07:30.439Z,18.95
2022-10-30T14:08:07.500Z,18.20
2022-10-30T14:08:52.398Z,13.68
2022-10-30T14:09:34.424Z,11.63
2022-10-30T14:10:15.866Z,15.55
2022-10-30T14:10:52.414Z,14.80
2022-10-30T14:11:26.015Z,16.70
2022-10-30T14:12:02.095Z,12.20
2022-10-30T14:12:51.162Z,12.13
2022-10-30T14:13:26.994Z,14.13
2022-10-30T14:14:12.745Z,15.85
2022-10-30T14:14:47.730Z,19.27
2022-10-30T14:15:31.082Z,11.55
2022-10-30T14:16:07.643Z,13.75
2022-10-30T14:16:46.460Z,14.95
2022-10-30T14:17:17.975Z,14.57
2022-10-30T14:18:48.345Z,16.90
2022-10-30T14:19:19.737Z,14.00
2022-10-30T14:20:20.208Z,16.27
2022-10-30T14:20:53.085Z,14.40
2022-10-30T14:21:42.181Z,17.55
2022-10-30T14:22:25.083Z,15.32
2022-10-30T14:23:22.850Z,18.02
2022-10-30T14:24:03.011Z,14.93
2022-10-30T14:24:35.043Z,17.95
2022-10-30T14:25:16.063Z,14.65
2022-10-30T14:26:02.859Z,15.52
2022-10-30T14:26:34.158Z,14.90
2022-10-30T14:27:05.389Z,12.30
2022-10-30T14:27:36.731Z,19.27
2022-10-30T14:28:21.392Z,15.80
2022-10-30T14:28:55.172Z,17.70
2022-10-30T14:29:35.782Z,17.02
2022-10-30T14:30:18.221Z,15.88
2022-10-30T14:31:01.550Z,15.30
2022-10-30T14:31:35.759Z,16.05
2022-10-30T14:32:17.947Z,21.77
2022-10-30T14:32:52.273Z,15.05
2022-10-30T14:34:02.737Z,16.48
2022-10-30T14:34:57.546Z,13.80
2022-10-30T14:35:33.643Z,16.08
2022-10-30T14:36:18.021Z,15.43
2022-10-30T14:36:49.574Z,15.98
2022-10-30T14:37:23.724Z,18.10
2022-10-30T14:37:56.204Z,12.55
2022-10-30T14:38:34.200Z,16.05
2022-10-30T14:39:11.914Z,13.95
2022-10-30T14:39:45.293Z,16.52
2022-10-30T14:40:53.764Z,17.42
2022-10-30T14:41:37.512Z,17.77
2022-10-30T14:42:15.083Z,17.00
2022-10-30T14:42:57.362Z,17.10
2022-10-30T14:43:50.376Z,18.75
2022-10-30T14:44:24.462Z,14.73
2022-10-30T14:45:00.206Z,14.45
2022-10-30T14:45:41.398Z,13.35
2022-10-30T14:46:38.855Z,14.75
2022-10-30T14:47:32.614Z,17.00
2022-10-30T14:48:26.534Z,13.27
2022-10-30T14:49:13.151Z,13.70
2022-10-30T14:49:49.585Z,14.63
2022-10-30T14:50:27.126Z,14.23
2022-10-30T14:51:11.464Z,19.42
2022-10-30T14:51:53.438Z,11.55
2022-10-30T14:52:35.304Z,12.50
2022-10-30T14:53:09.602Z,15.57
2022-10-30T14:54:27.235Z,15.40
2022-10-30T14:55:09.424Z,17.15
2022-10-30T14:55:55.700Z,12.43
2022-10-30T14:56:47.071Z,15.05
2022-10-30T14:57:23.579Z,14.63
2022-10-30T14:58:01.544Z,18.88
2022-10-30T14:58:35.939Z,14.68
2022-10-30T14:59:13.066Z,17.48
2022-10-30T14:59:44.364Z,15.20
2022-10-30T15:00:21.909Z,16.25
2022-10-30T15:01:22.429Z,15.65
2022-10-30T15:02:15.950Z,15.82
2022-10-30T15:02:58.658Z,18.65
2022-10-30T15:03:51.770Z,18.10
2022-10-30T15:05:03.976Z,13.98
2022-10-30T15:05:47.885Z,14.60
2022-10-30T15:06:34.413Z,16.17
2022-10-30T15:07:15.987Z,11.32
2022-10-30T15:08:04.879Z,15.77
2022-10-30T15:08:48.985Z,14.13
2022-10-30T15:09:45.122Z,15.95
2022-10-30T15:10:30.967Z,28.02
2022-10-30T15:11:24.676Z,14.05
2022-10-30T15:13:21.059Z,11.95
2022-10-30T15:13:56.753Z,19.42
2022-10-30T15:15:27.205Z,18.40
2022-10-30T15:16:01.225Z,15.20
2022-10-30T15:16:38.246Z,13.18
2022-10-30T15:17:23.690Z,19.10
2022-10-30T15:18:21.231Z,20.85
2022-10-30T15:19:04.468Z,13.43
2022-10-30T15:19:35.813Z,17.75
2022-10-30T15:20:21.553Z,18.77
2022-10-30T15:20:54.737Z,15.85
2022-10-30T15:21:29.510Z,15.20
2022-10-30T15:22:01.320Z,20.45
2022-10-30T15:22:34.130Z,13.70
2022-10-30T15:23:27.315Z,16.17
2022-10-30T15:24:01.179Z,19.35
2022-10-30T15:24:33.909Z,17.92
2022-10-30T15:25:14.601Z,17.95
2022-10-30T15:25:50.298Z,20.35
2022-10-30T15:26:33.107Z,14.27
2022-10-30T15:27:04.967Z,18.17
2022-10-30T15:27:43.212Z,18.55
2022-10-30T15:28:21.693Z,17.10
2022-10-30T15:28:54.278Z,13.90
2022-10-30T15:29:35.756Z,15.93
2022-10-30T15:30:18.259Z,15.63
2022-10-30T15:31:04.108Z,14.25
2022-10-30T15:31:35.393Z,16.35
2022-10-30T15:32:20.905Z,16.25
2022-10-30T15:32:52.852Z,14.38
2022-10-30T15:33:24.144Z,11.77
2022-10-30T15:33:57.738Z,17.38
2022-10-30T15:34:31.455Z,18.48
2022-10-30T15:35:04.893Z,15.18
2022-10-30T15:35:36.228Z,14.32
2022-10-30T15:36:23.059Z,16.98
2022-10-30T15:36:54.492Z,16.05
2022-10-30T15:37:26.269Z,16.83
2022-10-30T15:38:06.594Z,17.85
2022-10-30T15:39:14.830Z,13.90
2022-10-30T15:39:46.198Z,15.95
2022-10-30T15:40:21.461Z,18.15
2022-10-30T15:41:02.223Z,14.75
2022-10-30T15:41:44.636Z,18.50
2022-10-30T15:42:16.429Z,16.08
2022-10-30T15:42:49.504Z,17.08
2022-10-30T15:43:24.336Z,19.48
2022-10-30T15:43:58.316Z,18.02
2022-10-30T15:44:39.973Z,23.63
2022-10-30T15:45:28.629Z,16.42
2022-10-30T15:46:00.001Z,13.07
2022-10-30T15:46:31.521Z,21.58
2022-10-30T15:47:04.615Z,19.73
2022-10-30T15:47:38.422Z,17.20
2022-10-30T15:48:28.602Z,15.55
2022-10-30T15:49:00.103Z,12.82
2022-10-30T15:49:36.027Z,15.30
2022-10-30T15:50:07.670Z,17.02
2022-10-30T15:50:43.887Z,15.55
2022-10-30T15:51:22.159Z,19.10
2022-10-30T15:51:53.872Z,23.13
2022-10-30T15:52:27.855Z,20.83
2022-10-30T15:52:59.794Z,15.77
2022-10-30T15:53:45.337Z,18.38
2022-10-30T15:54:21.177Z,19.48
2022-10-30T15:55:02.510Z,19.13
2022-10-30T15:55:33.935Z,17.23
2022-10-30T15:56:09.297Z,20.00
2022-10-30T15:57:17.841Z,20.17
2022-10-30T15:58:06.882Z,17.92
2022-10-30T15:58:38.264Z,18.38
2022-10-30T15:59:19.034Z,20.20
2022-10-30T15:59:55.199Z,16.92
2022-10-30T16:00:35.585Z,17.92
2022-10-30T16:01:46.132Z,19.92
2022-10-30T16:02:21.855Z,19.83
2022-10-30T16:03:04.000Z,19.17
2022-10-30T16:03:35.345Z,18.15
2022-10-30T16:04:18.101Z,19.80
2022-10-30T16:04:50.026Z,18.88
2022-10-30T16:05:25.117Z,18.73
2022-10-30T16:06:13.985Z,20.77
2022-10-30T16:06:56.501Z,17.02
2022-10-30T16:07:29.478Z,17.08
2022-10-30T16:08:02.846Z,19.15
2022-10-30T16:08:43.609Z,17.15
2022-10-30T16:09:15.117Z,20.77
2022-10-30T16:09:58.473Z,21.23
2022-10-30T16:10:34.381Z,18.95
2022-10-30T16:11:05.798Z,18.65
2022-10-30T16:11:39.093Z,17.75
2022-10-30T16:12:12.725Z,21.42
2022-10-30T16:12:44.493Z,18.25
2022-10-30T16:13:31.570Z,21.98
2022-10-30T16:14:13.737Z,17.35
2022-10-30T16:14:45.245Z,17.33
2022-10-30T16:15:43.462Z,21.92
2022-10-30T16:16:35.208Z,19.50
2022-10-30T16:17:09.864Z,19.33
2022-10-30T16:17:41.452Z,19.88
2022-10-30T16:18:39.242Z,19.33
2022-10-30T16:19:18.941Z,22.40
2022-10-30T16:19:53.812Z,19.40
2022-10-30T16:20:27.137Z,20.13
2022-10-30T16:21:04.875Z,20.85
2022-10-30T16:21:37.044Z,19.88
2022-10-30T16:22:14.742Z,20.00
2022-10-30T16:22:47.124Z,25.73
2022-10-30T16:23:20.235Z,19.73
2022-10-30T16:23:54.101Z,23.90
2022-10-30T16:24:33.943Z,21.85
2022-10-30T16:25:09.653Z,23.52
2022-10-30T16:25:46.705Z,20.95
2022-10-30T16:26:35.462Z,20.25
2022-10-30T16:27:15.441Z,19.90
2022-10-30T16:27:46.848Z,18.38
2022-10-30T16:28:30.478Z,18.88
2022-10-30T16:29:13.800Z,22.75
2022-10-30T16:29:47.138Z,21.77
2022-10-30T16:30:18.421Z,27.42
2022-10-30T16:30:50.319Z,20.33
2022-10-30T16:31:22.149Z,25.35
2022-10-30T16:31:53.933Z,24.45
2022-10-30T16:32:29.698Z,30.50
2022-10-30T16:33:01.352Z,20.65
2022-10-30T16:33:35.150Z,22.00
2022-10-30T16:34:12.309Z,18.08
2022-10-30T16:34:44.791Z,16.83
2022-10-30T16:35:16.210Z,23.60
2022-10-30T16:35:54.737Z,20.90
2022-10-30T16:36:27.564Z,19.13
2022-10-30T16:36:59.814Z,25.35
2022-10-30T16:37:40.618Z,22.40
2022-10-30T16:38:12.772Z,23.60
2022-10-30T16:38:47.453Z,19.83
2022-10-30T16:39:20.085Z,21.70
2022-10-30T16:39:52.997Z,18.95
2022-10-30T16:40:28.375Z,26.55
2022-10-30T16:40:59.947Z,22.90
2022-10-30T16:41:31.951Z,27.80
2022-10-30T16:42:03.526Z,24.58
2022-10-30T16:42:35.070Z,23.48
2022-10-30T16:43:28.078Z,26.55
2022-10-30T16:44:25.051Z,23.17
2022-10-30T16:45:11.506Z,18.88
2022-10-30T16:45:47.020Z,22.67
2022-10-30T16:46:32.456Z,29.42
2022-10-30T16:47:25.143Z,21.13
2022-10-30T16:48:08.460Z,24.38
2022-10-30T16:48:46.555Z,20.52
2022-10-30T16:49:22.384Z,24.10
2022-10-30T16:49:58.294Z,19.40
2022-10-30T16:50:35.313Z,21.75
2022-10-30T16:51:06.884Z,19.42
2022-10-30T16:51:39.560Z,19.00
2022-10-30T16:52:14.104Z,19.08
2022-10-30T16:52:45.704Z,19.52
2022-10-30T16:53:22.459Z,14.57
2022-10-30T16:53:53.840Z,20.95
2022-10-30T16:54:29.123Z,19.70
2022-10-30T16:55:09.657Z,20.92
2022-10-30T16:55:41.070Z,22.05
2022-10-30T16:56:27.603Z,17.83
2022-10-30T16:57:03.645Z,18.25
2022-10-30T16:57:37.252Z,15.57
2022-10-30T16:58:13.479Z,17.73
2022-10-30T16:58:44.816Z,20.35
2022-10-30T16:59:44.786Z,20.25
2022-10-30T17:00:25.806Z,21.52
2022-10-30T17:01:06.728Z,24.08
2022-10-30T17:01:38.559Z,31.63
2022-10-30T17:02:26.222Z,28.95
2022-10-30T17:02:59.382Z,37.13
2022-10-30T17:03:37.564Z,26.45
2022-10-30T17:04:19.318Z,26.35
2022-10-30T17:04:57.855Z,23.90
2022-10-30T17:05:33.700Z,25.30
2022-10-30T17:06:22.991Z,24.45
2022-10-30T17:07:05.617Z,24.42
2022-10-30T17:07:38.666Z,24.65
2022-10-30T17:08:29.211Z,27.40
2022-10-30T17:09:37.038Z,22.00
2022-10-30T17:10:30.929Z,21.73
2022-10-30T17:11:05.885Z,17.90
2022-10-30T17:11:44.791Z,18.88
2022-10-30T17:12:27.988Z,28.45
2022-10-30T17:13:27.074Z,28.55
2022-10-30T17:14:00.082Z,26.27
2022-10-30T17:14:43.309Z,22.55
2022-10-30T17:15:16.209Z,25.48
2022-10-30T17:15:47.536Z,29.55
2022-10-30T17:16:30.640Z,30.30
2022-10-30T17:17:02.043Z,30.80
2022-10-30T17:17:34.959Z,28.73
2022-10-30T17:18:15.106Z,29.85
2022-10-30T17:18:46.448Z,26.25
2022-10-30T17:19:38.457Z,25.55
2022-10-30T17:20:18.758Z,27.77
2022-10-30T17:21:12.248Z,23.20
2022-10-30T17:21:43.687Z,26.20
2022-10-30T17:22:20.736Z,22.65
2022-10-30T17:23:05.798Z,26.13
2022-10-30T17:23:43.892Z,20.83
2022-10-30T17:24:22.051Z,24.23
2022-10-30T17:24:53.560Z,25.50
2022-10-30T17:25:45.335Z,26.88
2022-10-30T17:26:18.293Z,25.85
2022-10-30T17:27:00.679Z,24.10
2022-10-30T17:27:42.169Z,24.83
2022-10-30T17:28:26.901Z,24.42
2022-10-30T17:28:58.174Z,28.42
2022-10-30T17:29:38.440Z,33.25
2022-10-30T17:30:34.426Z,26.40
2022-10-30T17:31:38.104Z,28.35
2022-10-30T17:32:20.383Z,26.85
2022-10-30T17:32:54.541Z,27.08
2022-10-30T17:33:36.454Z,24.08
2022-10-30T17:34:20.685Z,24.40
2022-10-30T17:35:16.483Z,25.30
2022-10-30T17:35:47.917Z,29.52
2022-10-30T17:36:19.217Z,25.13
2022-10-30T17:36:50.493Z,28.27
2022-10-30T17:37:21.852Z,28.63
2022-10-30T17:37:53.200Z,27.60
2022-10-30T17:38:24.471Z,25.52
2022-10-30T17:38:55.777Z,23.40
2022-10-30T17:39:27.054Z,27.33
2022-10-30T17:39:58.346Z,25.85
2022-10-30T17:40:29.651Z,24.13
2022-10-30T17:41:01.370Z,27.08
2022-10-30T17:41:32.662Z,19.05
2022-10-30T17:42:04.337Z,25.02
2022-10-30T17:42:35.685Z,27.70
2022-10-30T17:43:14.443Z,21.20
2022-10-30T17:43:54.403Z,24.92
2022-10-30T17:44:26.291Z,21.15
2022-10-30T17:44:57.716Z,21.60
2022-10-30T17:45:29.023Z,22.45
2022-10-30T17:46:00.331Z,22.10
2022-10-30T17:46:31.651Z,26.15
2022-10-30T17:47:15.921Z,27.90
2022-10-30T17:47:47.285Z,21.92
2022-10-30T17:48:21.343Z,25.88
2022-10-30T17:48:52.789Z,28.98
2022-10-30T17:49:26.502Z,26.65
2022-10-30T17:49:59.266Z,24.05
2022-10-30T17:50:30.550Z,23.02
2022-10-30T17:51:01.822Z,22.15
2022-10-30T17:51:33.217Z,24.00
2022-10-30T17:52:04.731Z,26.13
2022-10-30T17:52:36.280Z,24.40
2022-10-30T17:53:15.022Z,20.67
2022-10-30T17:53:47.792Z,24.98
2022-10-30T17:54:19.436Z,23.33
2022-10-30T17:54:50.856Z,25.20
2022-10-30T17:55:25.490Z,23.17
2022-10-30T17:56:04.290Z,28.02
2022-10-30T17:56:35.640Z,25.52
2022-10-30T17:57:12.491Z,22.88
2022-10-30T17:57:43.766Z,29.05
2022-10-30T17:58:15.100Z,23.42
2022-10-30T17:58:46.378Z,20.83
2022-10-30T17:59:17.708Z,21.90
2022-10-30T17:59:49.006Z,20.92
2022-10-30T18:00:20.494Z,25.65
2022-10-30T18:00:51.995Z,23.40
2022-10-30T18:01:26.191Z,26.42
2022-10-30T18:01:57.706Z,21.63
2022-10-30T18:02:29.131Z,25.83
2022-10-30T18:03:00.886Z,18.80
2022-10-30T18:03:32.355Z,21.92
2022-10-30T18:04:15.047Z,18.52
2022-10-30T18:04:49.874Z,19.50
2022-10-30T18:05:25.371Z,18.50
2022-10-30T18:05:58.602Z,16.70
2022-10-30T18:06:29.901Z,17.33
2022-10-30T18:07:01.189Z,18.58
2022-10-30T18:07:32.463Z,20.08
2022-10-30T18:08:04.025Z,19.48
2022-10-30T18:08:35.308Z,16.77
2022-10-30T18:09:06.653Z,19.35
2022-10-30T18:09:38.297Z,22.67
2022-10-30T18:10:09.906Z,18.55
2022-10-30T18:10:41.247Z,24.15
2022-10-30T18:11:14.067Z,17.52
2022-10-30T18:11:45.398Z,19.20
2022-10-30T18:12:17.296Z,18.05
2022-10-30T18:12:48.604Z,21.38
2022-10-30T18:13:20.016Z,25.55
2022-10-30T18:13:52.259Z,19.58
2022-10-30T18:14:23.645Z,17.00
2022-10-30T18:14:54.967Z,22.00
2022-10-30T18:15:39.126Z,21.35
2022-10-30T18:16:13.631Z,19.08
2022-10-30T18:16:44.902Z,18.38
2022-10-30T18:17:16.172Z,18.58
2022-10-30T18:17:47.466Z,18.05
2022-10-30T18:18:18.732Z,18.92
2022-10-30T18:18:50.769Z,18.75
2022-10-30T18:19:22.136Z,22.02
2022-10-30T18:19:53.540Z,20.55
2022-10-30T18:20:25.505Z,17.85
2022-10-30T18:20:56.815Z,20.35
2022-10-30T18:21:28.190Z,23.08
2022-10-30T18:21:59.466Z,21.85
2022-10-30T18:22:30.729Z,22.13
2022-10-30T18:23:02.492Z,20.70
2022-10-30T18:24:25.305Z,21.02
2022-10-30T18:24:56.648Z,22.77
2022-10-30T18:25:34.246Z,15.25
2022-10-30T18:26:05.794Z,24.15
2022-10-30T18:26:40.534Z,20.95
2022-10-30T18:27:12.148Z,22.30
2022-10-30T18:27:45.065Z,25.73
2022-10-30T18:28:16.858Z,22.25
2022-10-30T18:28:48.643Z,25.83
2022-10-30T18:29:19.967Z,21.70
2022-10-30T18:29:51.252Z,20.33
2022-10-30T18:30:22.874Z,20.45
2022-10-30T18:30:56.466Z,22.10
2022-10-30T18:31:27.765Z,25.65
2022-10-30T18:31:59.139Z,25.50
2022-10-30T18:32:30.421Z,25.63
2022-10-30T18:33:02.171Z,20.25
2022-10-30T18:33:33.716Z,19.33
2022-10-30T18:34:11.263Z,22.63
2022-10-30T18:34:42.653Z,26.02
2022-10-30T18:35:38.130Z,23.77
2022-10-30T18:36:17.329Z,19.42
2022-10-30T18:36:49.106Z,22.48
2022-10-30T18:37:20.406Z,25.08
2022-10-30T18:37:52.189Z,26.10
2022-10-30T18:38:23.463Z,27.20
2022-10-30T18:38:56.088Z,20.33
2022-10-30T18:39:27.461Z,23.90
2022-10-30T18:39:58.828Z,21.70
2022-10-30T18:40:30.424Z,22.23
2022-10-30T18:41:02.347Z,22.23
2022-10-30T18:41:36.621Z,22.25
2022-10-30T18:42:08.881Z,27.52
2022-10-30T18:42:40.204Z,23.83
2022-10-30T18:43:12.691Z,21.33
2022-10-30T18:43:46.804Z,24.15
2022-10-30T18:44:19.116Z,22.95
2022-10-30T18:44:50.406Z,21.80
2022-10-30T18:45:33.059Z,21.52
2022-10-30T18:46:04.654Z,24.83
2022-10-30T18:46:36.065Z,26.58
2022-10-30T18:47:10.722Z,23.13
2022-10-30T18:47:41.992Z,23.67
2022-10-30T18:48:13.401Z,23.88
2022-10-30T18:48:45.862Z,23.70
2022-10-30T18:49:18.698Z,24.20
2022-10-30T18:49:50.086Z,23.27
2022-10-30T18:50:23.193Z,24.25
2022-10-30T18:50:54.623Z,20.00
2022-10-30T18:51:27.695Z,21.02
2022-10-30T18:51:59.111Z,20.17
2022-10-30T18:52:30.439Z,22.77
2022-10-30T18:53:02.279Z,22.63
2022-10-30T18:53:35.388Z,22.65
2022-10-30T18:54:25.191Z,21.75
2022-10-30T18:54:56.471Z,23.50
2022-10-30T18:55:39.731Z,33.30
2022-10-30T18:56:11.111Z,21.85
2022-10-30T18:56:43.243Z,21.10
2022-10-30T18:57:14.625Z,27.48
2022-10-30T18:57:46.468Z,28.15
2022-10-30T18:58:17.741Z,28.63
2022-10-30T18:58:53.475Z,29.50
2022-10-30T18:59:27.902Z,24.20
2022-10-30T19:00:00.676Z,23.92
2022-10-30T19:00:44.852Z,30.92
2022-10-30T19:01:54.268Z,25.63
2022-10-30T19:02:25.780Z,34.85
2022-10-30T19:02:58.839Z,39.47
2022-10-30T19:03:30.128Z,34.97
2022-10-30T19:04:03.446Z,37.45
2022-10-30T19:04:34.850Z,45.85
2022-10-30T19:05:41.191Z,53.78
2022-10-30T19:06:14.529Z,49.35
2022-10-30T19:06:46.451Z,53.83
2022-10-30T19:07:17.766Z,56.55
2022-10-30T19:07:49.146Z,51.08
2022-10-30T19:08:20.428Z,44.35
2022-10-30T19:08:51.777Z,38.20
2022-10-30T19:09:23.110Z,35.13
2022-10-30T19:09:55.811Z,35.17
2022-10-30T19:10:29.421Z,44.60
2022-10-30T19:11:00.787Z,43.97
2022-10-30T19:11:32.332Z,46.40
2022-10-30T19:12:03.866Z,45.47
2022-10-30T19:12:38.515Z,46.03
2022-10-30T19:13:17.619Z,46.33
2022-10-30T19:13:49.053Z,36.35
2022-10-30T19:14:20.356Z,33.70
2022-10-30T19:14:52.030Z,28.60
2022-10-30T19:15:26.528Z,23.20
2022-10-30T19:16:00.924Z,23.98
2022-10-30T19:16:33.350Z,23.92
2022-10-30T19:17:04.690Z,26.05
2022-10-30T19:17:35.958Z,29.48
2022-10-30T19:18:07.781Z,22.95
2022-10-30T19:18:39.190Z,19.20
2022-10-30T19:19:10.476Z,24.90
2022-10-30T19:19:41.865Z,20.98
2022-10-30T19:20:14.028Z,23.25
2022-10-30T19:21:03.440Z,27.08
2022-10-30T19:21:35.565Z,22.77
2022-10-30T19:22:06.850Z,20.23
2022-10-30T19:22:38.718Z,16.75
2022-10-30T19:23:15.462Z,22.15
2022-10-30T19:23:46.989Z,24.17
2022-10-30T19:24:18.605Z,19.90
2022-10-30T19:24:51.251Z,19.75
2022-10-30T19:25:32.620Z,22.83
2022-10-30T19:26:04.007Z,32.60
2022-10-30T19:26:35.352Z,23.25
2022-10-30T19:27:06.641Z,22.73
2022-10-30T19:27:37.946Z,25.05
2022-10-30T19:28:09.702Z,19.75
2022-10-30T19:28:41.104Z,24.65
2022-10-30T19:29:12.406Z,24.67
2022-10-30T19:29:43.713Z,24.38
2022-10-30T19:30:15.976Z,26.65
2022-10-30T19:30:54.506Z,26.10
2022-10-30T19:31:25.799Z,24.88
2022-10-30T19:31:57.091Z,30.08
2022-10-30T19:32:28.380Z,28.92
2022-10-30T19:32:59.747Z,29.58
2022-10-30T19:33:31.116Z,30.75
2022-10-30T19:34:02.507Z,27.70
2022-10-30T19:34:33.905Z,27.17
2022-10-30T19:35:06.173Z,25.48
2022-10-30T19:35:37.468Z,28.20
2022-10-30T19:36:44.448Z,26.35
2022-10-30T19:37:15.709Z,22.73
2022-10-30T19:37:47.028Z,23.38
2022-10-30T19:38:18.321Z,27.15
2022-10-30T19:38:49.602Z,30.08
2022-10-30T19:39:21.178Z,28.80
2022-10-30T19:39:52.479Z,26.35
2022-10-30T19:40:33.297Z,26.50
2022-10-30T19:41:06.445Z,27.52
2022-10-30T19:41:38.849Z,21.75
2022-10-30T19:42:10.310Z,26.38
2022-10-30T19:42:41.637Z,29.45
2022-10-30T19:43:12.925Z,30.98
2022-10-30T19:43:44.198Z,26.80
2022-10-30T19:44:15.487Z,34.47
2022-10-30T19:44:46.765Z,26.00
2022-10-30T19:45:19.340Z,30.05
2022-10-30T19:45:56.641Z,26.50
2022-10-30T19:46:27.960Z,31.63
2022-10-30T19:46:59.233Z,30.95
2022-10-30T19:47:30.513Z,29.42
2022-10-30T19:48:11.199Z,32.63
2022-10-30T19:48:59.223Z,26.77
2022-10-30T19:49:31.233Z,24.20
2022-10-30T19:50:18.554Z,24.23
2022-10-30T19:50:49.908Z,18.08
2022-10-30T19:51:22.082Z,25.58
2022-10-30T19:51:53.379Z,21.98
2022-10-30T19:52:29.113Z,21.88
2022-10-30T19:53:02.391Z,23.88
2022-10-30T19:53:33.908Z,23.13
2022-10-30T19:54:05.294Z,22.55
2022-10-30T19:54:36.619Z,27.38
2022-10-30T19:55:08.340Z,22.83
2022-10-30T19:55:42.035Z,22.05
2022-10-30T19:56:14.681Z,26.60
2022-10-30T19:56:46.003Z,26.20
2022-10-30T19:57:21.768Z,28.75
2022-10-30T19:57:57.581Z,27.65
2022-10-30T19:58:29.121Z,25.92
2022-10-30T19:59:00.615Z,31.67
2022-10-30T19:59:32.002Z,22.70
2022-10-30T20:00:07.059Z,20.08
2022-10-30T20:00:40.068Z,29.33
2022-10-30T20:01:13.385Z,23.40
2022-10-30T20:01:45.137Z,25.50
2022-10-30T20:02:16.671Z,30.63
2022-10-30T20:02:48.084Z,27.80
2022-10-30T20:03:19.884Z,27.27
2022-10-30T20:03:51.195Z,30.00
2022-10-30T20:04:25.085Z,29.30
2022-10-30T20:04:56.485Z,28.92
2022-10-30T20:05:30.576Z,28.63
2022-10-30T20:06:01.937Z,29.48
2022-10-30T20:06:33.308Z,30.40
2022-10-30T20:07:04.633Z,34.85
2022-10-30T20:07:35.912Z,30.60
2022-10-30T20:08:10.661Z,26.08
2022-10-30T20:08:42.077Z,27.98
2022-10-30T20:09:13.495Z,32.17
2022-10-30T20:09:44.797Z,25.25
2022-10-30T20:10:19.225Z,26.33
2022-10-30T20:10:51.528Z,24.35
2022-10-30T20:11:23.062Z,27.95
2022-10-30T20:11:54.352Z,26.58
2022-10-30T20:12:25.650Z,22.95
2022-10-30T20:12:57.757Z,25.60
2022-10-30T20:13:29.858Z,26.67
2022-10-30T20:14:01.135Z,35.40
2022-10-30T20:14:32.650Z,30.33
2022-10-30T20:15:04.159Z,34.83
2022-10-30T20:15:35.605Z,31.92
2022-10-30T20:16:07.324Z,41.00
2022-10-30T20:16:38.630Z,40.45
2022-10-30T20:17:11.143Z,35.28
2022-10-30T20:17:42.733Z,36.90
2022-10-30T20:18:17.302Z,39.80
2022-10-30T20:18:49.401Z,31.92
2022-10-30T20:19:28.061Z,34.63
2022-10-30T20:19:59.383Z,31.48
2022-10-30T20:20:33.370Z,32.58
2022-10-30T20:21:08.350Z,33.75
2022-10-30T20:21:39.830Z,31.48
2022-10-30T20:22:11.149Z,32.67
2022-10-30T20:22:42.590Z,32.63
2022-10-30T20:23:13.933Z,39.97
2022-10-30T20:23:45.952Z,37.80
2022-10-30T20:24:17.309Z,28.95
2022-10-30T20:24:48.586Z,26.17
2022-10-30T20:25:21.496Z,28.40
2022-10-30T20:25:57.498Z,25.40
2022-10-30T20:26:29.424Z,30.40
2022-10-30T20:27:00.965Z,29.63
2022-10-30T20:27:32.307Z,28.98
2022-10-30T20:28:17.293Z,29.77
2022-10-30T20:28:49.230Z,30.90
2022-10-30T20:29:20.532Z,28.67
2022-10-30T20:29:51.829Z,33.20
2022-10-30T20:30:23.529Z,33.05
2022-10-30T20:30:55.890Z,36.42
2022-10-30T20:31:27.266Z,32.17